createdAt,value
2018-02-17T00:00:41.527Z,56.40
2018-02-17T00:03:09.103Z,60.13
2018-02-17T00:05:36.750Z,50.03
2018-02-17T00:08:04.323Z,55.50
2018-02-17T00:10:31.964Z,49.27
2018-02-17T00:12:59.530Z,56.17
2018-02-17T00:15:27.164Z,54.40
2018-02-17T00:17:54.752Z,68.20
2018-02-17T00:20:22.327Z,63.80
2018-02-17T00:22:49.995Z,60.87
2018-02-17T00:25:17.571Z,58.03
2018-02-17T00:27:45.191Z,73.63
2018-02-17T00:30:12.760Z,78.13
2018-02-17T00:32:40.438Z,85.57
2018-02-17T00:35:08.002Z,60.87
2018-02-17T00:37:35.590Z,57.60
2018-02-17T00:40:03.224Z,84.63
2018-02-17T00:42:30.786Z,88.83
2018-02-17T00:44:58.456Z,105.13
2018-02-17T00:47:26.079Z,100.67
2018-02-17T00:49:53.677Z,85.30
2018-02-17T00:52:21.244Z,89.07
2018-02-17T00:54:48.936Z,104.07
2018-02-17T00:57:16.514Z,105.67
2018-02-17T00:59:44.088Z,99.83
2018-02-17T01:02:11.673Z,118.80
2018-02-17T01:04:39.306Z,114.00
2018-02-17T01:07:06.990Z,98.80
2018-02-17T01:09:34.567Z,105.73
2018-02-17T01:12:02.246Z,118.53
2018-02-17T01:14:29.825Z,115.13
2018-02-17T01:16:57.444Z,108.97
2018-02-17T01:19:25.033Z,103.77
2018-02-17T01:21:52.585Z,114.90
2018-02-17T01:24:20.228Z,94.00
2018-02-17T01:26:47.863Z,99.80
2018-02-17T01:29:15.503Z,112.30
2018-02-17T01:31:43.075Z,94.37
2018-02-17T01:34:10.642Z,82.77
2018-02-17T01:36:38.221Z,69.10
2018-02-17T01:39:05.791Z,72.70
2018-02-17T01:41:33.366Z,68.60
2018-02-17T01:44:00.921Z,69.47
2018-02-17T01:46:28.546Z,68.67
2018-02-17T01:48:56.171Z,71.27
2018-02-17T01:51:23.754Z,73.33
2018-02-17T01:53:51.377Z,69.13
2018-02-17T01:56:18.951Z,72.10
2018-02-17T01:58:46.634Z,65.20
2018-02-17T02:01:14.205Z,71.70
2018-02-17T02:03:41.827Z,70.33
2018-02-17T02:06:09.398Z,67.13
2018-02-17T02:08:36.963Z,79.37
2018-02-17T02:11:04.607Z,73.87
2018-02-17T02:13:32.240Z,80.83
2018-02-17T02:15:59.818Z,83.30
2018-02-17T02:18:27.395Z,74.53
2018-02-17T02:20:54.996Z,72.97
2018-02-17T02:23:22.562Z,74.37
2018-02-17T02:25:50.192Z,80.10
2018-02-17T02:28:17.776Z,73.80
2018-02-17T02:30:45.408Z,76.87
2018-02-17T02:33:12.988Z,83.07
2018-02-17T02:35:40.621Z,74.23
2018-02-17T02:38:08.245Z,72.90
2018-02-17T02:40:35.820Z,61.17
2018-02-17T02:43:03.383Z,67.10
2018-02-17T02:45:30.970Z,68.23
2018-02-17T02:47:58.609Z,66.47
2018-02-17T02:50:26.199Z,72.40
2018-02-17T02:52:53.766Z,65.10
2018-02-17T02:55:21.400Z,78.17
2018-02-17T02:57:48.964Z,64.60
2018-02-17T03:00:16.538Z,62.40
2018-02-17T03:02:44.192Z,63.13
2018-02-17T03:05:11.754Z,62.47
2018-02-17T03:07:39.400Z,55.97
2018-02-17T03:10:06.968Z,65.57
2018-02-17T03:12:34.661Z,56.93
2018-02-17T03:15:02.336Z,55.83
2018-02-17T03:17:30.015Z,71.63
2018-02-17T03:19:57.594Z,51.70
2018-02-17T03:22:25.167Z,67.37
2018-02-17T03:24:52.751Z,70.80
2018-02-17T03:27:20.362Z,65.50
2018-02-17T03:29:48.070Z,63.00
2018-02-17T03:32:15.702Z,62.23
2018-02-17T03:34:43.337Z,66.60
2018-02-17T03:37:10.917Z,56.10
2018-02-17T03:39:38.505Z,63.33
2018-02-17T03:42:06.094Z,67.30
2018-02-17T03:44:33.671Z,78.03
2018-02-17T03:47:01.312Z,63.70
2018-02-17T03:49:28.891Z,47.00
2018-02-17T03:51:56.460Z,52.60
2018-02-17T03:54:24.047Z,53.70
2018-02-17T03:56:51.679Z,59.67
2018-02-17T03:59:19.271Z,67.50
2018-02-17T04:01:46.835Z,55.73
2018-02-17T04:04:14.458Z,53.87
2018-02-17T04:06:42.034Z,50.67
2018-02-17T04:09:09.624Z,61.93
2018-02-17T04:11:37.202Z,63.20
2018-02-17T04:14:04.768Z,68.60
2018-02-17T04:16:32.350Z,60.80
2018-02-17T04:18:59.937Z,58.10
2018-02-17T04:21:27.551Z,80.10
2018-02-17T04:23:55.099Z,71.10
2018-02-17T04:26:22.666Z,70.27
2018-02-17T04:28:50.306Z,63.10
2018-02-17T04:31:17.935Z,88.73
2018-02-17T04:33:45.576Z,160.33
2018-02-17T04:36:13.207Z,220.70
2018-02-17T04:38:40.877Z,170.27
2018-02-17T04:44:10.555Z,119.73
2018-02-17T04:46:43.830Z,93.80
2018-02-17T04:52:31.375Z,68.50
2018-02-17T04:58:18.886Z,56.00
2018-02-17T05:00:51.895Z,65.30
2018-02-17T05:06:32.330Z,56.37
2018-02-17T05:09:01.411Z,47.57
2018-02-17T05:11:29.035Z,57.90
2018-02-17T05:14:02.294Z,57.37
2018-02-17T05:16:35.537Z,63.30
2018-02-17T05:19:03.979Z,51.43
2018-02-17T05:21:48.383Z,46.77
2018-02-17T05:27:27.267Z,45.23
2018-02-17T05:29:54.884Z,46.80
2018-02-17T05:32:27.386Z,47.83
2018-02-17T05:35:01.614Z,69.20
2018-02-17T05:37:29.298Z,49.73
2018-02-17T05:43:04.962Z,97.90
2018-02-17T05:45:32.559Z,98.43
2018-02-17T05:48:02.069Z,96.47
2018-02-17T05:50:30.150Z,110.60
2018-02-17T05:52:57.722Z,124.30
2018-02-17T05:55:25.298Z,90.83
2018-02-17T05:57:52.866Z,90.50
2018-02-17T06:00:20.531Z,84.63
2018-02-17T06:02:48.094Z,92.03
2018-02-17T06:05:15.707Z,85.93
2018-02-17T06:07:43.395Z,87.10
2018-02-17T06:10:11.007Z,98.57
2018-02-17T06:12:38.733Z,71.53
2018-02-17T06:15:06.306Z,64.00
2018-02-17T06:17:33.870Z,69.00
2018-02-17T06:20:01.450Z,61.90
2018-02-17T06:22:29.252Z,69.00
2018-02-17T06:24:56.865Z,58.60
2018-02-17T06:27:24.427Z,63.33
2018-02-17T06:29:52.048Z,67.23
2018-02-17T06:32:19.609Z,60.00
2018-02-17T06:34:47.207Z,66.27
2018-02-17T06:37:14.782Z,64.07
2018-02-17T06:39:42.415Z,69.10
2018-02-17T06:42:09.995Z,65.50
2018-02-17T06:44:37.562Z,68.77
2018-02-17T06:47:05.185Z,115.30
2018-02-17T06:49:32.758Z,98.70
2018-02-17T06:52:00.378Z,73.63
2018-02-17T06:54:28.012Z,73.33
2018-02-17T06:56:55.636Z,121.40
2018-02-17T06:59:23.303Z,95.13
2018-02-17T07:01:50.947Z,120.50
2018-02-17T07:04:18.593Z,93.00
2018-02-17T07:06:46.227Z,63.73
2018-02-17T07:09:13.795Z,59.80
2018-02-17T07:11:41.432Z,61.80
2018-02-17T07:14:08.999Z,59.57
2018-02-17T07:16:36.582Z,60.60
2018-02-17T07:19:04.271Z,63.20
2018-02-17T07:21:31.986Z,63.83
2018-02-17T07:23:59.560Z,63.40
2018-02-17T07:26:27.126Z,67.47
2018-02-17T07:28:54.803Z,62.67
2018-02-17T07:31:22.379Z,59.87
2018-02-17T07:33:49.972Z,60.07
2018-02-17T07:36:17.542Z,57.20
2018-02-17T07:38:45.230Z,58.67
2018-02-17T07:41:12.806Z,61.90
2018-02-17T07:43:40.383Z,55.60
2018-02-17T07:46:08.023Z,53.23
2018-02-17T07:48:35.571Z,52.30
2018-02-17T07:51:03.147Z,57.47
2018-02-17T07:53:30.775Z,59.60
2018-02-17T07:55:58.403Z,57.43
2018-02-17T07:58:25.978Z,49.90
2018-02-17T08:00:53.616Z,57.07
2018-02-17T08:03:21.194Z,49.40
2018-02-17T08:05:48.769Z,64.60
2018-02-17T08:08:16.413Z,45.47
2018-02-17T08:10:43.979Z,53.47
2018-02-17T08:13:11.673Z,54.73
2018-02-17T08:15:39.238Z,47.27
2018-02-17T08:18:06.802Z,50.37
2018-02-17T08:20:34.393Z,48.13
2018-02-17T08:23:01.967Z,32.20
2018-02-17T08:25:29.542Z,42.80
2018-02-17T08:27:57.180Z,38.40
2018-02-17T08:30:24.838Z,39.73
2018-02-17T08:32:52.475Z,35.83
2018-02-17T08:35:20.105Z,38.07
2018-02-17T08:37:47.679Z,36.77
2018-02-17T08:40:15.311Z,39.63
2018-02-17T08:42:42.886Z,39.07
2018-02-17T08:45:10.448Z,39.60
2018-02-17T08:47:38.079Z,37.03
2018-02-17T08:50:05.642Z,37.13
2018-02-17T08:52:33.320Z,35.77
2018-02-17T08:55:00.896Z,40.27
2018-02-17T08:57:28.536Z,39.17
2018-02-17T08:59:56.259Z,48.67
2018-02-17T09:02:23.830Z,31.60
2018-02-17T09:04:51.443Z,43.13
2018-02-17T09:07:19.019Z,33.33
2018-02-17T09:09:46.647Z,33.77
2018-02-17T09:12:14.258Z,40.03
2018-02-17T09:14:41.837Z,48.63
2018-02-17T09:17:09.436Z,53.17
2018-02-17T09:19:37.004Z,42.37
2018-02-17T09:22:04.646Z,39.93
2018-02-17T09:24:32.227Z,45.13
2018-02-17T09:26:59.833Z,38.73
2018-02-17T09:29:27.479Z,39.87
2018-02-17T09:31:55.050Z,38.27
2018-02-17T09:34:22.684Z,45.73
2018-02-17T09:36:50.319Z,34.93
2018-02-17T09:39:17.883Z,32.30
2018-02-17T09:44:44.425Z,35.63
2018-02-17T09:47:12.067Z,36.30
2018-02-17T09:49:39.652Z,31.33
2018-02-17T09:52:07.288Z,34.00
2018-02-17T09:54:34.862Z,25.50
2018-02-17T09:57:02.439Z,31.00
2018-02-17T09:59:30.076Z,28.60
2018-02-17T10:01:57.664Z,28.50
2018-02-17T10:04:25.247Z,29.13
2018-02-17T10:06:52.865Z,29.87
2018-02-17T10:09:20.481Z,29.53
2018-02-17T10:11:48.054Z,28.43
2018-02-17T10:14:15.691Z,24.23
2018-02-17T10:16:43.327Z,35.00
2018-02-17T10:19:10.902Z,26.40
2018-02-17T10:21:38.484Z,25.67
2018-02-17T10:24:06.037Z,23.03
2018-02-17T10:26:33.672Z,22.30
2018-02-17T10:29:01.308Z,18.93
2018-02-17T10:31:28.887Z,24.73
2018-02-17T10:33:56.480Z,15.53
2018-02-17T10:36:24.107Z,17.43
2018-02-17T10:38:51.696Z,20.23
2018-02-17T10:41:19.314Z,20.67
2018-02-17T10:43:46.927Z,33.90
2018-02-17T10:46:14.511Z,18.90
2018-02-17T10:48:42.162Z,27.80
2018-02-17T10:51:09.755Z,18.20
2018-02-17T10:53:37.326Z,27.13
2018-02-17T10:56:04.911Z,22.23
2018-02-17T10:58:32.470Z,20.23
2018-02-17T11:01:00.159Z,16.73
2018-02-17T11:03:27.732Z,17.50
2018-02-17T11:05:55.317Z,16.97
2018-02-17T11:08:22.960Z,16.97
2018-02-17T11:10:50.525Z,19.23
2018-02-17T11:13:18.136Z,18.30
2018-02-17T11:18:18.475Z,14.67
2018-02-17T11:20:46.018Z,23.37
2018-02-17T11:23:13.564Z,38.83
2018-02-17T11:25:41.127Z,20.73
2018-02-17T11:28:08.674Z,18.27
2018-02-17T11:30:36.226Z,22.40
2018-02-17T11:33:03.775Z,15.90
2018-02-17T11:35:31.394Z,20.83
2018-02-17T11:37:58.943Z,46.07
2018-02-17T11:40:26.486Z,19.87
2018-02-17T11:42:54.222Z,17.40
2018-02-17T11:45:21.932Z,24.10
2018-02-17T11:47:49.655Z,15.47
2018-02-17T11:50:17.375Z,16.30
2018-02-17T11:52:45.191Z,18.57
2018-02-17T11:55:12.930Z,19.07
2018-02-17T11:57:40.677Z,23.30
2018-02-17T12:00:08.397Z,21.40
2018-02-17T12:02:36.117Z,30.33
2018-02-17T12:05:03.847Z,20.10
2018-02-17T12:07:31.548Z,17.50
2018-02-17T12:09:59.328Z,20.00
2018-02-17T12:12:27.028Z,22.50
2018-02-17T12:14:54.738Z,21.87
2018-02-17T12:17:22.483Z,14.53
2018-02-17T12:19:50.206Z,19.33
2018-02-17T12:22:17.951Z,25.37
2018-02-17T12:24:45.696Z,17.37
2018-02-17T12:27:13.449Z,18.53
2018-02-17T12:29:41.170Z,25.67
2018-02-17T12:32:08.892Z,26.37
2018-02-17T12:34:36.623Z,20.23
2018-02-17T12:37:04.345Z,18.23
2018-02-17T12:39:32.072Z,18.00
2018-02-17T12:41:59.796Z,23.23
2018-02-17T12:44:27.403Z,16.53
2018-02-17T12:46:55.034Z,16.57
2018-02-17T12:49:22.606Z,17.47
2018-02-17T12:51:50.195Z,18.80
2018-02-17T12:54:17.827Z,16.30
2018-02-17T12:56:45.412Z,18.90
2018-02-17T12:59:12.987Z,14.57
2018-02-17T13:01:40.670Z,18.53
2018-02-17T13:04:08.243Z,15.63
2018-02-17T13:06:35.880Z,20.93
2018-02-17T13:09:03.538Z,15.43
2018-02-17T13:11:31.107Z,19.53
2018-02-17T13:13:58.733Z,17.80
2018-02-17T13:16:26.334Z,16.27
2018-02-17T13:18:53.963Z,17.20
2018-02-17T13:21:21.589Z,18.70
2018-02-17T13:23:49.158Z,14.67
2018-02-17T13:26:16.789Z,19.27
2018-02-17T13:28:44.371Z,17.53
2018-02-17T13:31:11.951Z,12.77
2018-02-17T13:33:39.519Z,15.80
2018-02-17T13:36:07.179Z,13.30
2018-02-17T13:38:34.751Z,16.93
2018-02-17T13:41:02.318Z,18.77
2018-02-17T13:43:29.921Z,16.13
2018-02-17T13:45:57.559Z,19.63
2018-02-17T13:48:25.133Z,13.97
2018-02-17T13:50:52.760Z,17.03
2018-02-17T13:53:20.383Z,16.50
2018-02-17T13:55:48.021Z,20.97
2018-02-17T13:58:15.646Z,17.40
2018-02-17T14:00:43.227Z,13.50
2018-02-17T14:03:10.794Z,14.30
2018-02-17T14:05:38.418Z,17.63
2018-02-17T14:08:05.999Z,14.63
2018-02-17T14:10:33.572Z,13.57
2018-02-17T14:13:01.152Z,13.60
2018-02-17T14:15:28.708Z,15.70
2018-02-17T14:17:56.381Z,13.97
2018-02-17T14:20:23.954Z,13.50
2018-02-17T14:22:51.522Z,14.80
2018-02-17T14:25:19.199Z,17.00
2018-02-17T14:27:46.758Z,14.33
2018-02-17T14:30:14.389Z,14.50
2018-02-17T14:32:41.974Z,12.50
2018-02-17T14:35:09.540Z,15.33
2018-02-17T14:37:37.268Z,17.37
2018-02-17T14:40:04.870Z,23.23
2018-02-17T14:42:32.499Z,15.67
2018-02-17T14:45:00.076Z,18.40
2018-02-17T14:47:27.711Z,22.10
2018-02-17T14:49:55.308Z,22.30
2018-02-17T14:52:22.947Z,19.87
2018-02-17T14:54:50.567Z,13.37
2018-02-17T14:57:18.142Z,18.50
2018-02-17T14:59:45.766Z,32.00
2018-02-17T15:02:13.416Z,22.97
2018-02-17T15:04:40.986Z,30.63
2018-02-17T15:07:08.563Z,19.53
2018-02-17T15:09:36.132Z,28.17
2018-02-17T15:12:03.734Z,23.77
2018-02-17T15:14:31.306Z,74.43
2018-02-17T15:16:58.987Z,50.47
2018-02-17T15:19:26.558Z,37.40
2018-02-17T15:21:54.110Z,40.67
2018-02-17T15:24:21.699Z,34.10
2018-02-17T15:26:49.270Z,35.33
2018-02-17T15:29:17.055Z,26.90
2018-02-17T15:31:44.633Z,28.77
2018-02-17T15:34:12.275Z,40.87
2018-02-17T15:36:39.843Z,41.23
2018-02-17T15:39:07.490Z,36.83
2018-02-17T15:41:35.073Z,41.03
2018-02-17T15:44:02.655Z,76.00
2018-02-17T15:46:30.236Z,60.30
2018-02-17T15:48:57.888Z,47.07
2018-02-17T15:51:25.525Z,64.03
2018-02-17T15:53:53.090Z,88.87
2018-02-17T15:56:20.810Z,113.47
2018-02-17T15:58:48.775Z,116.43
2018-02-17T16:01:16.527Z,114.50
2018-02-17T16:03:44.173Z,114.63
2018-02-17T16:06:12.123Z,126.97
2018-02-17T16:08:39.815Z,133.63
2018-02-17T16:11:07.455Z,98.03
2018-02-17T16:13:35.092Z,390.97
2018-02-17T16:16:02.679Z,188.70
2018-02-17T16:18:30.252Z,90.97
2018-02-17T16:20:57.890Z,171.63
2018-02-17T16:23:25.523Z,118.07
2018-02-17T16:25:53.154Z,108.87
2018-02-17T16:28:20.788Z,113.93
2018-02-17T16:30:48.431Z,115.67
2018-02-17T16:33:16.079Z,111.10
2018-02-17T16:35:43.655Z,143.50
2018-02-17T16:38:11.310Z,163.47
2018-02-17T16:40:38.948Z,169.13
2018-02-17T16:43:06.571Z,159.80
2018-02-17T16:45:34.234Z,175.20
2018-02-17T16:48:01.869Z,176.07
2018-02-17T16:50:29.498Z,213.70
2018-02-17T16:52:57.145Z,302.37
2018-02-17T16:55:24.903Z,302.97
2018-02-17T16:57:53.893Z,161.87
2018-02-17T17:00:21.475Z,111.83
2018-02-17T17:02:49.057Z,127.47
2018-02-17T17:05:16.677Z,186.60
2018-02-17T17:07:44.312Z,200.13
2018-02-17T17:10:11.996Z,157.00
2018-02-17T17:12:39.677Z,145.00
2018-02-17T17:15:07.239Z,174.30
2018-02-17T17:17:34.797Z,227.70
2018-02-17T17:20:02.374Z,213.30
2018-02-17T17:22:29.995Z,176.17
2018-02-17T17:24:57.922Z,181.47
2018-02-17T17:27:25.503Z,157.50
2018-02-17T17:29:53.100Z,154.27
2018-02-17T17:32:20.740Z,162.13
2018-02-17T17:34:48.380Z,168.03
2018-02-17T17:37:16.010Z,172.90
2018-02-17T17:39:43.653Z,178.60
2018-02-17T17:42:11.288Z,197.17
2018-02-17T17:44:38.962Z,177.10
2018-02-17T17:47:06.515Z,204.97
2018-02-17T17:49:34.098Z,232.33
2018-02-17T17:52:01.680Z,246.30
2018-02-17T17:54:29.332Z,264.23
2018-02-17T17:56:56.938Z,284.80
2018-02-17T17:59:24.522Z,249.93
2018-02-17T18:01:52.178Z,241.30
2018-02-17T18:04:19.836Z,280.80
2018-02-17T18:06:47.491Z,285.40
2018-02-17T18:09:15.128Z,311.67
2018-02-17T18:11:42.848Z,321.77
2018-02-17T18:14:10.423Z,313.37
2018-02-17T18:16:38.058Z,288.93
2018-02-17T18:19:05.648Z,282.23
2018-02-17T18:21:33.231Z,249.57
2018-02-17T18:24:00.894Z,212.53
2018-02-17T18:26:28.474Z,179.57
2018-02-17T18:28:56.163Z,186.80
2018-02-17T18:31:23.793Z,189.53
2018-02-17T18:33:51.376Z,212.67
2018-02-17T18:36:19.011Z,197.37
2018-02-17T18:38:46.597Z,183.17
2018-02-17T18:41:14.235Z,149.13
2018-02-17T18:43:41.816Z,151.30
2018-02-17T18:46:09.556Z,122.10
2018-02-17T18:48:37.197Z,133.40
2018-02-17T18:51:04.772Z,175.47
2018-02-17T18:53:32.357Z,163.17
2018-02-17T18:55:59.997Z,174.37
2018-02-17T18:58:27.570Z,149.17
2018-02-17T19:00:55.193Z,166.97
2018-02-17T19:03:22.859Z,191.00
2018-02-17T19:05:50.435Z,183.27
2018-02-17T19:08:18.064Z,205.07
2018-02-17T19:10:45.689Z,163.23
2018-02-17T19:13:13.303Z,192.00
2018-02-17T19:15:40.897Z,131.70
2018-02-17T19:18:08.530Z,137.37
2018-02-17T19:20:36.227Z,124.27
2018-02-17T19:23:03.803Z,168.73
2018-02-17T19:25:31.380Z,155.00
2018-02-17T19:27:58.982Z,153.57
2018-02-17T19:30:26.559Z,127.97
2018-02-17T19:32:54.195Z,124.17
2018-02-17T19:35:21.766Z,124.97
2018-02-17T19:37:49.410Z,102.60
2018-02-17T19:40:17.051Z,121.37
2018-02-17T19:42:44.635Z,121.80
2018-02-17T19:45:12.292Z,167.17
2018-02-17T19:47:39.923Z,167.70
2018-02-17T19:50:07.496Z,177.90
2018-02-17T19:52:35.067Z,138.77
2018-02-17T19:55:02.813Z,141.23
2018-02-17T19:57:30.428Z,145.27
2018-02-17T19:59:57.982Z,130.70
2018-02-17T20:02:25.588Z,184.80
2018-02-17T20:04:53.177Z,162.97
2018-02-17T20:07:20.751Z,138.20
2018-02-17T20:09:48.337Z,117.80
2018-02-17T20:12:15.967Z,141.00
2018-02-17T20:14:43.556Z,172.43
2018-02-17T20:17:11.129Z,153.80
2018-02-17T20:19:38.722Z,146.37
2018-02-17T20:22:06.295Z,135.03
2018-02-17T20:24:33.877Z,120.40
2018-02-17T20:27:01.464Z,117.03
2018-02-17T20:29:29.110Z,136.23
2018-02-17T20:31:56.690Z,120.50
2018-02-17T20:34:24.305Z,141.63
2018-02-17T20:36:51.909Z,133.50
2018-02-17T20:39:19.480Z,109.13
2018-02-17T20:41:47.057Z,117.87
2018-02-17T20:44:14.682Z,119.93
2018-02-17T20:46:42.319Z,115.87
2018-02-17T20:49:09.903Z,112.47
2018-02-17T20:51:37.481Z,82.47
2018-02-17T20:54:05.055Z,68.50
2018-02-17T20:56:32.680Z,70.30
2018-02-17T20:59:00.257Z,78.37
2018-02-17T21:01:27.955Z,70.13
2018-02-17T21:03:55.574Z,45.77
2018-02-17T21:06:23.144Z,49.90
2018-02-17T21:08:50.719Z,48.20
2018-02-17T21:11:18.310Z,39.83
2018-02-17T21:13:46.718Z,69.60
2018-02-17T21:16:14.298Z,46.30
2018-02-17T21:18:41.912Z,44.17
2018-02-17T21:21:09.594Z,35.70
2018-02-17T21:23:37.228Z,35.47
2018-02-17T21:26:04.830Z,42.43
2018-02-17T21:28:32.412Z,48.53
2018-02-17T21:31:00.004Z,40.87
2018-02-17T21:33:27.586Z,35.23
2018-02-17T21:35:55.204Z,47.10
2018-02-17T21:38:22.882Z,40.80
2018-02-17T21:40:50.446Z,43.77
2018-02-17T21:43:18.049Z,56.77
2018-02-17T21:45:45.645Z,44.80
2018-02-17T21:48:13.275Z,38.50
2018-02-17T21:50:40.911Z,37.27
2018-02-17T21:53:08.535Z,34.43
2018-02-17T21:55:36.235Z,33.83
2018-02-17T21:58:03.859Z,34.60
2018-02-17T22:00:31.494Z,43.13
2018-02-17T22:02:59.065Z,47.80
2018-02-17T22:05:26.647Z,39.83
2018-02-17T22:07:54.238Z,40.77
2018-02-17T22:10:21.803Z,33.97
2018-02-17T22:12:49.431Z,29.50
2018-02-17T22:15:17.008Z,26.70
2018-02-17T22:17:44.639Z,30.73
2018-02-17T22:20:12.236Z,29.23
2018-02-17T22:22:39.870Z,27.50
2018-02-17T22:25:07.459Z,29.30
2018-02-17T22:27:35.025Z,30.43
2018-02-17T22:30:02.680Z,28.80
2018-02-17T22:32:30.304Z,25.53
2018-02-17T22:34:57.927Z,26.80
2018-02-17T22:37:25.563Z,27.23
2018-02-17T22:39:53.195Z,25.00
2018-02-17T22:42:20.778Z,19.27
2018-02-17T22:44:48.332Z,28.00
2018-02-17T22:47:16.015Z,21.37
2018-02-17T22:49:43.646Z,23.73
2018-02-17T22:52:11.214Z,25.10
2018-02-17T22:54:38.795Z,21.10
2018-02-17T22:57:06.373Z,25.83
2018-02-17T22:59:33.955Z,22.60
2018-02-17T23:02:01.524Z,19.57
2018-02-17T23:04:29.216Z,24.67
2018-02-17T23:06:56.847Z,29.83
2018-02-17T23:09:24.475Z,27.77
2018-02-17T23:11:52.057Z,25.67
2018-02-17T23:14:19.691Z,22.70
2018-02-17T23:16:47.266Z,23.17
2018-02-17T23:19:14.854Z,26.87
2018-02-17T23:21:42.542Z,25.97
2018-02-17T23:24:10.192Z,23.20
2018-02-17T23:26:37.758Z,29.13
2018-02-17T23:29:05.396Z,27.50
2018-02-17T23:31:32.964Z,32.97
2018-02-17T23:34:00.609Z,32.30
2018-02-17T23:36:28.187Z,28.67
2018-02-17T23:38:55.810Z,25.00
2018-02-17T23:41:23.420Z,25.60
2018-02-17T23:43:51.048Z,21.03
2018-02-17T23:46:18.628Z,22.73
2018-02-17T23:48:46.244Z,25.13
2018-02-17T23:51:13.824Z,27.30
2018-02-17T23:53:41.387Z,23.60
2018-02-17T23:56:09.021Z,23.00
2018-02-17T23:58:36.605Z,24.50
